sensor_id;sensor_type;location;lat;lon;timestamp;P1;durP1;ratioP1;P2;durP2;ratioP2
77248;SDS011;66280;45.124;20.718;2024-02-28T00:07:53;10.70;;;3.75;;
77248;SDS011;66280;45.124;20.718;2024-02-28T00:17:55;9.53;;;4.97;;
77248;SDS011;66280;45.124;20.718;2024-02-28T00:27:56;7.78;;;4.03;;
77248;SDS011;66280;45.124;20.718;2024-02-28T00:37:58;13.40;;;4.63;;
77248;SDS011;66280;45.124;20.718;2024-02-28T00:47:59;10.50;;;3.53;;
77248;SDS011;66280;45.124;20.718;2024-02-28T00:58:00;7.45;;;4.68;;
77248;SDS011;66280;45.124;20.718;2024-02-28T01:08:02;14.40;;;4.80;;
77248;SDS011;66280;45.124;20.718;2024-02-28T01:18:03;14.70;;;5.85;;
77248;SDS011;66280;45.124;20.718;2024-02-28T01:28:05;11.67;;;4.00;;
77248;SDS011;66280;45.124;20.718;2024-02-28T01:38:07;7.47;;;3.80;;
77248;SDS011;66280;45.124;20.718;2024-02-28T01:48:11;7.13;;;2.85;;
77248;SDS011;66280;45.124;20.718;2024-02-28T01:58:13;10.37;;;5.50;;
77248;SDS011;66280;45.124;20.718;2024-02-28T02:08:14;9.98;;;3.38;;
77248;SDS011;66280;45.124;20.718;2024-02-28T02:18:16;6.50;;;3.87;;
77248;SDS011;66280;45.124;20.718;2024-02-28T02:28:17;8.67;;;3.83;;
77248;SDS011;66280;45.124;20.718;2024-02-28T02:38:19;9.85;;;3.85;;
77248;SDS011;66280;45.124;20.718;2024-02-28T02:48:20;11.20;;;5.00;;
77248;SDS011;66280;45.124;20.718;2024-02-28T02:58:22;10.95;;;4.82;;
77248;SDS011;66280;45.124;20.718;2024-02-28T03:08:23;9.90;;;4.23;;
77248;SDS011;66280;45.124;20.718;2024-02-28T03:18:25;7.03;;;4.27;;
77248;SDS011;66280;45.124;20.718;2024-02-28T03:28:26;10.63;;;4.10;;
77248;SDS011;66280;45.124;20.718;2024-02-28T03:38:28;9.20;;;4.47;;
77248;SDS011;66280;45.124;20.718;2024-02-28T03:48:29;9.90;;;3.83;;
77248;SDS011;66280;45.124;20.718;2024-02-28T03:58:31;11.60;;;4.70;;
77248;SDS011;66280;45.124;20.718;2024-02-28T04:08:32;9.70;;;3.47;;
77248;SDS011;66280;45.124;20.718;2024-02-28T04:18:34;9.60;;;3.88;;
77248;SDS011;66280;45.124;20.718;2024-02-28T04:28:35;10.87;;;5.00;;
77248;SDS011;66280;45.124;20.718;2024-02-28T04:38:36;9.63;;;4.30;;
77248;SDS011;66280;45.124;20.718;2024-02-28T04:48:38;10.60;;;4.17;;
77248;SDS011;66280;45.124;20.718;2024-02-28T04:58:39;11.70;;;5.13;;
77248;SDS011;66280;45.124;20.718;2024-02-28T05:08:41;14.25;;;5.00;;
77248;SDS011;66280;45.124;20.718;2024-02-28T05:18:45;13.37;;;5.00;;
77248;SDS011;66280;45.124;20.718;2024-02-28T05:28:47;7.00;;;3.55;;
77248;SDS011;66280;45.124;20.718;2024-02-28T05:38:49;6.47;;;3.10;;
77248;SDS011;66280;45.124;20.718;2024-02-28T05:48:50;12.67;;;5.20;;
77248;SDS011;66280;45.124;20.718;2024-02-28T05:58:52;9.57;;;3.72;;
77248;SDS011;66280;45.124;20.718;2024-02-28T06:08:53;8.03;;;4.87;;
77248;SDS011;66280;45.124;20.718;2024-02-28T06:18:55;16.83;;;5.60;;
77248;SDS011;66280;45.124;20.718;2024-02-28T06:28:57;11.27;;;5.63;;
77248;SDS011;66280;45.124;20.718;2024-02-28T06:39:02;11.43;;;5.07;;
77248;SDS011;66280;45.124;20.718;2024-02-28T06:49:04;11.70;;;6.00;;
77248;SDS011;66280;45.124;20.718;2024-02-28T06:59:05;17.13;;;7.80;;
77248;SDS011;66280;45.124;20.718;2024-02-28T07:09:08;26.60;;;8.13;;
77248;SDS011;66280;45.124;20.718;2024-02-28T07:19:10;13.10;;;5.43;;
77248;SDS011;66280;45.124;20.718;2024-02-28T07:29:11;9.80;;;5.13;;
77248;SDS011;66280;45.124;20.718;2024-02-28T07:39:13;9.75;;;5.90;;
77248;SDS011;66280;45.124;20.718;2024-02-28T07:49:14;13.03;;;6.07;;
77248;SDS011;66280;45.124;20.718;2024-02-28T07:59:15;13.85;;;5.63;;
77248;SDS011;66280;45.124;20.718;2024-02-28T08:09:17;11.87;;;4.43;;
77248;SDS011;66280;45.124;20.718;2024-02-28T08:19:19;9.97;;;5.77;;
77248;SDS011;66280;45.124;20.718;2024-02-28T08:29:21;14.57;;;6.18;;
77248;SDS011;66280;45.124;20.718;2024-02-28T08:39:22;7.80;;;4.63;;
77248;SDS011;66280;45.124;20.718;2024-02-28T08:49:24;10.73;;;5.20;;
77248;SDS011;66280;45.124;20.718;2024-02-28T08:59:26;11.87;;;5.63;;
77248;SDS011;66280;45.124;20.718;2024-02-28T09:09:27;11.73;;;5.13;;
77248;SDS011;66280;45.124;20.718;2024-02-28T09:19:34;8.57;;;4.35;;
77248;SDS011;66280;45.124;20.718;2024-02-28T09:29:36;11.93;;;5.90;;
77248;SDS011;66280;45.124;20.718;2024-02-28T09:39:38;8.30;;;4.55;;
77248;SDS011;66280;45.124;20.718;2024-02-28T09:49:41;6.87;;;5.40;;
77248;SDS011;66280;45.124;20.718;2024-02-28T09:59:44;4.37;;;3.63;;
77248;SDS011;66280;45.124;20.718;2024-02-28T10:09:46;11.77;;;6.40;;
77248;SDS011;66280;45.124;20.718;2024-02-28T10:19:47;14.63;;;6.93;;
77248;SDS011;66280;45.124;20.718;2024-02-28T10:29:49;11.52;;;7.07;;
77248;SDS011;66280;45.124;20.718;2024-02-28T10:39:51;15.43;;;5.40;;
77248;SDS011;66280;45.124;20.718;2024-02-28T10:49:53;9.33;;;6.13;;
77248;SDS011;66280;45.124;20.718;2024-02-28T10:59:55;10.20;;;6.60;;
77248;SDS011;66280;45.124;20.718;2024-02-28T11:09:57;12.00;;;6.23;;
77248;SDS011;66280;45.124;20.718;2024-02-28T11:19:59;11.38;;;6.50;;
77248;SDS011;66280;45.124;20.718;2024-02-28T11:30:00;8.93;;;6.53;;
77248;SDS011;66280;45.124;20.718;2024-02-28T11:40:02;12.07;;;6.07;;
77248;SDS011;66280;45.124;20.718;2024-02-28T11:50:04;13.02;;;7.10;;
77248;SDS011;66280;45.124;20.718;2024-02-28T12:00:07;11.53;;;5.77;;
77248;SDS011;66280;45.124;20.718;2024-02-28T12:10:11;9.90;;;7.18;;
77248;SDS011;66280;45.124;20.718;2024-02-28T12:20:13;10.40;;;6.90;;
77248;SDS011;66280;45.124;20.718;2024-02-28T12:30:15;13.60;;;7.13;;
77248;SDS011;66280;45.124;20.718;2024-02-28T12:40:17;17.02;;;10.18;;
77248;SDS011;66280;45.124;20.718;2024-02-28T12:50:18;13.00;;;7.50;;
77248;SDS011;66280;45.124;20.718;2024-02-28T13:00:22;11.10;;;6.63;;
77248;SDS011;66280;45.124;20.718;2024-02-28T13:10:24;9.57;;;6.77;;
77248;SDS011;66280;45.124;20.718;2024-02-28T13:20:27;12.57;;;7.17;;
77248;SDS011;66280;45.124;20.718;2024-02-28T13:30:28;7.60;;;5.97;;
77248;SDS011;66280;45.124;20.718;2024-02-28T13:40:30;11.60;;;6.17;;
77248;SDS011;66280;45.124;20.718;2024-02-28T13:50:32;9.87;;;4.90;;
77248;SDS011;66280;45.124;20.718;2024-02-28T14:00:33;13.05;;;6.57;;
77248;SDS011;66280;45.124;20.718;2024-02-28T14:10:35;11.10;;;5.03;;
77248;SDS011;66280;45.124;20.718;2024-02-28T14:20:38;14.98;;;9.40;;
77248;SDS011;66280;45.124;20.718;2024-02-28T14:30:39;13.03;;;7.00;;
77248;SDS011;66280;45.124;20.718;2024-02-28T14:40:41;11.70;;;5.73;;
77248;SDS011;66280;45.124;20.718;2024-02-28T14:50:42;15.85;;;6.13;;
77248;SDS011;66280;45.124;20.718;2024-02-28T15:00:44;12.43;;;6.13;;
77248;SDS011;66280;45.124;20.718;2024-02-28T15:10:47;15.52;;;8.43;;
77248;SDS011;66280;45.124;20.718;2024-02-28T15:20:49;16.57;;;7.10;;
77248;SDS011;66280;45.124;20.718;2024-02-28T15:30:51;16.80;;;8.60;;
77248;SDS011;66280;45.124;20.718;2024-02-28T15:40:53;42.35;;;13.57;;
77248;SDS011;66280;45.124;20.718;2024-02-28T15:50:54;19.20;;;10.17;;
77248;SDS011;66280;45.124;20.718;2024-02-28T16:00:56;34.65;;;17.42;;
77248;SDS011;66280;45.124;20.718;2024-02-28T16:10:58;61.53;;;25.33;;
77248;SDS011;66280;45.124;20.718;2024-02-28T16:21:00;24.33;;;11.13;;
77248;SDS011;66280;45.124;20.718;2024-02-28T16:31:02;73.20;;;21.92;;
77248;SDS011;66280;45.124;20.718;2024-02-28T16:41:04;79.37;;;29.83;;
77248;SDS011;66280;45.124;20.718;2024-02-28T16:51:07;35.47;;;14.93;;
77248;SDS011;66280;45.124;20.718;2024-02-28T17:01:09;45.03;;;14.90;;
77248;SDS011;66280;45.124;20.718;2024-02-28T17:11:10;40.97;;;14.60;;
77248;SDS011;66280;45.124;20.718;2024-02-28T17:21:13;46.33;;;18.90;;
77248;SDS011;66280;45.124;20.718;2024-02-28T17:31:14;44.97;;;19.93;;
77248;SDS011;66280;45.124;20.718;2024-02-28T17:41:16;43.67;;;17.75;;
77248;SDS011;66280;45.124;20.718;2024-02-28T17:51:17;31.60;;;13.40;;
77248;SDS011;66280;45.124;20.718;2024-02-28T18:01:19;25.70;;;13.87;;
77248;SDS011;66280;45.124;20.718;2024-02-28T18:11:24;51.08;;;23.20;;
77248;SDS011;66280;45.124;20.718;2024-02-28T18:21:28;19.17;;;9.63;;
77248;SDS011;66280;45.124;20.718;2024-02-28T18:31:30;32.33;;;16.35;;
77248;SDS011;66280;45.124;20.718;2024-02-28T18:41:31;42.73;;;19.00;;
77248;SDS011;66280;45.124;20.718;2024-02-28T18:51:35;56.47;;;25.03;;
77248;SDS011;66280;45.124;20.718;2024-02-28T19:01:37;37.22;;;18.02;;
77248;SDS011;66280;45.124;20.718;2024-02-28T19:11:39;28.47;;;13.43;;
77248;SDS011;66280;45.124;20.718;2024-02-28T19:21:40;25.70;;;13.65;;
77248;SDS011;66280;45.124;20.718;2024-02-28T19:31:42;30.77;;;15.50;;
77248;SDS011;66280;45.124;20.718;2024-02-28T19:41:43;42.47;;;20.63;;
77248;SDS011;66280;45.124;20.718;2024-02-28T19:51:45;35.70;;;17.70;;
77248;SDS011;66280;45.124;20.718;2024-02-28T20:01:47;81.63;;;36.73;;
77248;SDS011;66280;45.124;20.718;2024-02-28T20:11:48;57.05;;;26.77;;
77248;SDS011;66280;45.124;20.718;2024-02-28T20:21:50;49.73;;;22.50;;
77248;SDS011;66280;45.124;20.718;2024-02-28T20:31:51;101.93;;;35.20;;
77248;SDS011;66280;45.124;20.718;2024-02-28T20:41:53;37.78;;;18.05;;
77248;SDS011;66280;45.124;20.718;2024-02-28T20:51:56;20.03;;;11.07;;
77248;SDS011;66280;45.124;20.718;2024-02-28T21:02:00;30.77;;;14.70;;
77248;SDS011;66280;45.124;20.718;2024-02-28T21:12:02;22.90;;;10.73;;
77248;SDS011;66280;45.124;20.718;2024-02-28T21:22:04;23.37;;;11.73;;
77248;SDS011;66280;45.124;20.718;2024-02-28T21:32:05;28.67;;;13.73;;
77248;SDS011;66280;45.124;20.718;2024-02-28T21:42:07;23.33;;;11.30;;
77248;SDS011;66280;45.124;20.718;2024-02-28T21:52:09;16.58;;;8.45;;
77248;SDS011;66280;45.124;20.718;2024-02-28T22:02:11;17.30;;;8.53;;
77248;SDS011;66280;45.124;20.718;2024-02-28T22:12:12;17.83;;;6.93;;
77248;SDS011;66280;45.124;20.718;2024-02-28T22:22:14;14.27;;;7.50;;
77248;SDS011;66280;45.124;20.718;2024-02-28T22:32:17;12.97;;;6.70;;
77248;SDS011;66280;45.124;20.718;2024-02-28T22:42:18;12.82;;;6.60;;
77248;SDS011;66280;45.124;20.718;2024-02-28T22:52:19;9.53;;;5.93;;
77248;SDS011;66280;45.124;20.718;2024-02-28T23:02:21;13.60;;;5.87;;
77248;SDS011;66280;45.124;20.718;2024-02-28T23:12:22;15.05;;;6.47;;
77248;SDS011;66280;45.124;20.718;2024-02-28T23:22:24;10.57;;;6.77;;
77248;SDS011;66280;45.124;20.718;2024-02-28T23:32:25;10.88;;;6.68;;
77248;SDS011;66280;45.124;20.718;2024-02-28T23:42:27;12.87;;;4.67;;
77248;SDS011;66280;45.124;20.718;2024-02-28T23:52:28;12.27;;;5.70;;
